Bookmark and Share
Track history (hours):
 

Tampa

Last reported at 2013-Aug-03 02:18 UTC. Time now 2014-Apr-16 16:13 UTC.
Position N 31°55' E 120°10'.
Warning: this ship's position is months out of date.

Length 262 m; beam 32.3 m; draft 11.7 m.

Type: Cargo ship. MMSI: 257497000.

NotesDate/timePositionNaut miles runAvg speedWind from/ knotsBaromVisibWave heightAir tempDewpointWater temp
2013-Aug-03 02:18N 31°55' E 120°10'0 0.1
2013-Aug-03 01:24N 31°55' E 120°10'0 0.0
2013-Aug-03 00:30N 31°55' E 120°10'0 0.0
2013-Aug-02 23:24N 31°55' E 120°10'0 0.0
2013-Aug-02 22:11N 31°55' E 120°10'0 0.0
2013-Aug-02 21:29N 31°55' E 120°10'0 0.0
2013-Aug-02 20:23N 31°55' E 120°10'0 0.0
2013-Aug-02 19:30N 31°55' E 120°10'0 0.0
2013-Aug-02 18:24N 31°55' E 120°10'0 0.0
2013-Aug-02 17:30N 31°55' E 120°10'0 0.0
2013-Aug-02 16:29N 31°55' E 120°10'0 0.0
2013-Aug-02 15:10N 31°55' E 120°10'0 0.0
2013-Aug-02 14:16N 31°55' E 120°10'0 0.0
2013-Aug-02 13:28N 31°55' E 120°10'0 0.0
2013-Aug-02 12:22N 31°55' E 120°10'0 0.0
2013-Aug-02 11:33N 31°55' E 120°10'0 0.0
2013-Aug-02 10:32N 31°55' E 120°10'0 0.0
2013-Aug-02 09:32N 31°55' E 120°10'0 0.0
2013-Aug-02 08:31N 31°55' E 120°10'0 0.0
2013-Aug-02 07:30N 31°55' E 120°10'0 0.0
2013-Aug-02 06:34N 31°55' E 120°10'2 1.8
2013-Aug-02 05:33N 31°56' E 120°08'0 0.1
2013-Aug-02 04:16N 31°57' E 120°08'0 0.1
2013-Aug-02 03:30N 31°57' E 120°08'0 0.0
2013-Aug-02 02:30N 31°57' E 120°08'0 0.0
2013-Aug-02 01:29N 31°57' E 120°08'0 0.0
2013-Aug-02 00:29N 31°57' E 120°08'0 0.0
2013-Aug-01 23:29N 31°57' E 120°08'0 0.0
2013-Aug-01 22:11N 31°57' E 120°08'0 0.0
2013-Aug-01 21:23N 31°57' E 120°08'0 0.0
2013-Aug-01 20:23N 31°57' E 120°08'0 0.0
2013-Aug-01 19:09N 31°57' E 120°08'0 0.1
2013-Aug-01 18:33N 31°57' E 120°08'0 0.1
2013-Aug-01 17:33N 31°57' E 120°08'0 0.0
2013-Aug-01 16:33N 31°57' E 120°08'0 0.0
2013-Aug-01 15:27N 31°57' E 120°08'0 0.1
2013-Aug-01 14:33N 31°57' E 120°08'0 0.1
2013-Aug-01 13:32N 31°57' E 120°08'0 0.0
2013-Aug-01 12:31N 31°57' E 120°08'0 0.1
2013-Aug-01 11:31N 31°57' E 120°08'0 0.1
2013-Aug-01 10:31N 31°57' E 120°08'0 0.0
2013-Aug-01 08:31N 31°57' E 120°08'0 0.0
2013-Aug-01 07:23N 31°57' E 120°08'0 0.0
2013-Aug-01 06:29N 31°57' E 120°08'0 0.0
2013-Aug-01 05:28N 31°57' E 120°08'0 0.0
2013-Aug-01 04:33N 31°57' E 120°08'0 0.0
2013-Aug-01 03:33N 31°57' E 120°08'4 4.2
2013-Aug-01 02:33N 31°56' E 120°13'1110.7
2013-Aug-01 01:34N 32°02' E 120°24'9 9.0
2013-Aug-01 00:34N 32°02' E 120°35'1212.0
2013-Jul-31 23:33N 32°00' E 120°49'1413.8
2013-Jul-31 22:33N 31°48' E 120°56'1211.7
2013-Jul-31 21:32N 31°42' E 121°08'1210.5
2013-Jul-31 20:21N 31°35' E 121°20'0 0.0
2013-Jul-31 16:29N 31°35' E 121°20'0 0.1
2013-Jul-31 13:26N 31°35' E 121°20'0 0.0
2013-Jul-31 12:32N 31°35' E 121°20'0 0.2
2013-Jul-31 10:25N 31°35' E 121°20'8 8.8
2013-Jul-31 09:33N 31°29' E 121°26'8 8.1
2013-Jul-31 08:33N 31°24' E 121°33'8 7.8
2013-Jul-31 07:33N 31°20' E 121°41'1010.2
2013-Jul-31 06:33N 31°16' E 121°52'1212.4
2013-Jul-31 05:33N 31°14' E 122°06'1312.6
2013-Jul-31 04:31N 31°06' E 122°19'1211.6
2013-Jul-31 03:29N 31°07' E 122°33'13 3.1
2013-Jul-30 23:26N 31°07' E 122°48'910.2
2013-Jul-30 22:33N 31°06' E 122°58'1110.4
2013-Jul-30 21:32N 31°03' E 123°10'1010.1
2013-Jul-30 20:33N 30°59' E 123°21'1211.3
2013-Jul-30 19:31N 30°47' E 123°22'1513.2
2013-Jul-30 18:24N 30°33' E 123°21'1113.0
2013-Jul-30 17:33N 30°22' E 123°19'1313.1
2013-Jul-30 16:33N 30°09' E 123°18'1312.7
2013-Jul-30 15:33N 29°56' E 123°18'1312.6
2013-Jul-30 14:33N 29°43' E 123°16'1312.6
2013-Jul-30 13:33N 29°31' E 123°15'1412.7
2013-Jul-30 12:25N 29°16' E 123°14'2812.6
2013-Jul-30 10:10N 28°48' E 123°14'2012.2
2013-Jul-30 08:33N 28°29' E 123°10'  
2013-Jul-25 13:12N 01°15' E 104°04'1016.4
2013-Jul-25 12:34N 01°12' E 103°54'1716.5
2013-Jul-25 11:32N 01°03' E 103°40'1313.2
2013-Jul-25 10:33N 01°13' E 103°32'1 0.7
2013-Jul-25 09:32N 01°14' E 103°32'0 0.1
2013-Jul-25 08:19N 01°14' E 103°32'0 0.2
2013-Jul-25 07:14N 01°14' E 103°32'0 0.0
2013-Jul-25 06:32N 01°14' E 103°32'0 0.0
2013-Jul-25 05:32N 01°14' E 103°32'0 0.1
2013-Jul-25 04:31N 01°14' E 103°32'0 0.1
2013-Jul-25 03:31N 01°14' E 103°32'0 0.1
2013-Jul-25 02:29N 01°14' E 103°32'0 0.0
2013-Jul-25 01:32N 01°14' E 103°32'0 0.0
2013-Jul-25 00:26N 01°14' E 103°32'0 0.0
2013-Jul-24 23:29N 01°14' E 103°32'0 0.0
2013-Jul-24 22:32N 01°14' E 103°32'0 0.0
2013-Jul-24 21:32N 01°14' E 103°32'0 0.1
2013-Jul-24 20:29N 01°14' E 103°32'0 0.0
2013-Jul-24 19:32N 01°14' E 103°32'0 0.1
2013-Jul-24 18:31N 01°14' E 103°32'0 0.1
2013-Jul-24 17:18N 01°14' E 103°32'  

Dump ship's entire track history

sailing weather and tide predictions

Tampa — LMWO3 — position and weather